createdAt,value
2022-09-01T00:05:00.333Z,97402.72
2022-09-01T00:10:06.938Z,97420.31
2022-09-01T00:15:11.988Z,97383.53
2022-09-01T00:20:20.112Z,97411.19
2022-09-01T00:25:24.535Z,97371.97
2022-09-01T00:30:27.912Z,97266.25
2022-09-01T00:35:30.783Z,97386.13
2022-09-01T00:40:39.560Z,97333.56
2022-09-01T00:45:43.247Z,97375.13
2022-09-01T00:50:47.282Z,97396.41
2022-09-01T00:55:53.822Z,97337.31
2022-09-01T01:00:56.763Z,97349.38
2022-09-01T01:06:04.453Z,97385.56
2022-09-01T01:11:18.727Z,97355.34
2022-09-01T01:16:23.242Z,97385.44
2022-09-01T01:21:49.014Z,97410.13
2022-09-01T01:26:52.905Z,97351.19
2022-09-01T01:31:55.687Z,97385.56
2022-09-01T01:37:01.119Z,97350.28
2022-09-01T01:42:08.923Z,97378.81
2022-09-01T01:47:14.006Z,97375.13
2022-09-01T01:52:18.410Z,97407.19
2022-09-01T01:57:21.123Z,97411.91
2022-09-01T02:02:23.728Z,97345.31
2022-09-01T02:07:28.373Z,97412.47
2022-09-01T02:12:35.565Z,97413.72
2022-09-01T02:17:40.654Z,97398.72
2022-09-01T02:22:45.579Z,97445.22
2022-09-01T02:27:54.372Z,97422.00
2022-09-01T02:32:59.335Z,97450.94
2022-09-01T02:38:02.030Z,97398.63
2022-09-01T02:43:04.880Z,97460.91
2022-09-01T02:48:11.130Z,97482.31
2022-09-01T02:53:16.269Z,97456.13
2022-09-01T02:58:22.924Z,97474.53
2022-09-01T03:03:27.715Z,97473.44
2022-09-01T03:08:35.246Z,97413.34
2022-09-01T03:13:40.297Z,97400.03
2022-09-01T03:18:43.745Z,97444.53
2022-09-01T03:23:47.514Z,97433.19
2022-09-01T03:28:53.233Z,97415.06
2022-09-01T03:33:57.879Z,97400.53
2022-09-01T03:39:01.193Z,97404.34
2022-09-01T03:44:04.027Z,97368.78
2022-09-01T03:49:08.858Z,97410.19
2022-09-01T03:54:12.344Z,97378.34
2022-09-01T03:59:17.672Z,97376.00
2022-09-01T04:04:20.536Z,97400.28
2022-09-01T04:09:23.249Z,97380.72
2022-09-01T04:14:29.263Z,97402.84
2022-09-01T04:19:37.835Z,97411.69
2022-09-01T04:24:45.106Z,97406.38
2022-09-01T04:29:49.372Z,97360.72
2022-09-01T04:34:51.911Z,97398.75
2022-09-01T04:39:57.266Z,97388.00
2022-09-01T04:45:08.058Z,97393.19
2022-09-01T04:50:18.206Z,97397.22
2022-09-01T04:55:20.977Z,97361.75
2022-09-01T05:00:26.385Z,97358.19
2022-09-01T05:05:29.135Z,97360.50
2022-09-01T05:10:34.298Z,97382.56
2022-09-01T05:15:39.246Z,97352.06
2022-09-01T05:20:43.008Z,97339.66
2022-09-01T05:25:49.337Z,97330.75
2022-09-01T05:30:55.298Z,97350.69
2022-09-01T05:36:04.078Z,97374.69
2022-09-01T05:41:12.065Z,97334.00
2022-09-01T05:46:17.985Z,97319.09
2022-09-01T05:51:43.432Z,97246.84
2022-09-01T05:56:47.002Z,97331.63
2022-09-01T06:01:50.699Z,97388.84
2022-09-01T06:07:07.012Z,97360.69
2022-09-01T06:12:30.051Z,97411.03
2022-09-01T06:17:35.995Z,97421.75
2022-09-01T06:22:40.317Z,97367.53
2022-09-01T06:27:45.591Z,97408.63
2022-09-01T06:32:50.569Z,97360.72
2022-09-01T06:37:53.873Z,97398.06
2022-09-01T06:42:56.651Z,97412.09
2022-09-01T06:48:00.143Z,97408.81
2022-09-01T06:58:32.900Z,97409.94
2022-09-01T07:03:35.498Z,97343.03
2022-09-01T07:14:22.051Z,97386.47
2022-09-01T07:19:48.339Z,97344.38
2022-09-01T07:25:11.445Z,97364.97
2022-09-01T07:30:16.822Z,97395.59
2022-09-01T07:35:23.316Z,97359.13
2022-09-01T07:46:36.291Z,97396.28
2022-09-01T07:51:37.947Z,97357.91
2022-09-01T07:56:42.228Z,97394.38
2022-09-01T08:01:45.128Z,97336.31
2022-09-01T08:06:48.081Z,97421.03
2022-09-01T08:12:01.800Z,97358.28
2022-09-01T08:22:29.075Z,97400.28
2022-09-01T08:27:34.181Z,97422.22
2022-09-01T08:32:38.221Z,97435.63
2022-09-01T08:37:45.335Z,97440.38
2022-09-01T08:43:26.707Z,97438.84
2022-09-01T08:54:15.819Z,97432.19
2022-09-01T08:59:23.186Z,97344.47
2022-09-01T09:04:34.778Z,97441.91
2022-09-01T09:09:54.081Z,97408.31
2022-09-01T09:15:17.930Z,97434.97
2022-09-01T09:20:20.917Z,97401.28
2022-09-01T09:25:25.254Z,97466.94
2022-09-01T09:30:31.070Z,97461.59
2022-09-01T09:35:34.190Z,97466.16
2022-09-01T09:41:00.037Z,97433.44
2022-09-01T09:46:25.243Z,97464.03
2022-09-01T09:51:28.910Z,97488.91
2022-09-01T09:56:33.202Z,97375.19
2022-09-01T10:01:36.062Z,97439.50
2022-09-01T10:06:42.999Z,97471.00
2022-09-01T10:11:56.992Z,97384.13
2022-09-01T10:17:24.512Z,97465.50
2022-09-01T10:22:27.893Z,97463.47
2022-09-01T10:27:34.594Z,97476.72
2022-09-01T10:32:55.393Z,97480.03
2022-09-01T10:38:01.524Z,97411.34
2022-09-01T10:43:38.002Z,97470.50
2022-09-01T10:48:55.890Z,97440.59
2022-09-01T10:54:02.443Z,97449.31
2022-09-01T11:04:33.396Z,97464.91
2022-09-01T11:10:31.434Z,97470.59
2022-09-01T11:15:41.437Z,97448.06
2022-09-01T11:20:46.074Z,97475.47
2022-09-01T11:26:18.994Z,97428.28
2022-09-01T11:31:22.636Z,97495.50
2022-09-01T11:36:46.766Z,97468.00
2022-09-01T11:42:09.929Z,97464.63
2022-09-01T11:47:17.531Z,97392.03
2022-09-01T11:52:22.400Z,97474.56
2022-09-01T11:57:35.764Z,97476.00
2022-09-01T12:02:47.445Z,97467.63
2022-09-01T12:07:50.312Z,97436.81
2022-09-01T12:13:04.383Z,97473.72
2022-09-01T12:18:19.780Z,97430.16
2022-09-01T12:23:36.111Z,97459.84
2022-09-01T12:28:42.427Z,97491.63
2022-09-01T12:33:46.367Z,97444.50
2022-09-01T12:38:49.809Z,97461.09
2022-09-01T12:43:54.703Z,97476.69
2022-09-01T12:49:17.589Z,97477.69
2022-09-01T12:54:26.767Z,97464.03
2022-09-01T12:59:37.362Z,97389.38
2022-09-01T13:04:40.313Z,97477.34
2022-09-01T13:09:42.867Z,97470.59
2022-09-01T13:14:45.535Z,97470.59
2022-09-01T13:19:48.522Z,97424.03
2022-09-01T13:24:51.619Z,97419.25
2022-09-01T13:29:54.445Z,97475.66
2022-09-01T13:34:57.215Z,97438.88
2022-09-01T13:40:01.674Z,97467.00
2022-09-01T13:45:05.438Z,97461.06
2022-09-01T13:50:11.472Z,97474.59
2022-09-01T13:55:17.557Z,97462.75
2022-09-01T14:00:25.254Z,97451.50
2022-09-01T14:05:31.905Z,97459.69
2022-09-01T14:10:40.332Z,97453.38
2022-09-01T14:15:43.454Z,97412.50
2022-09-01T14:20:49.730Z,97419.72
2022-09-01T14:25:52.662Z,97438.25
2022-09-01T14:35:55.836Z,97409.56
2022-09-01T14:40:58.533Z,97444.50
2022-09-01T14:46:11.824Z,97406.75
2022-09-01T14:51:24.865Z,97392.72
2022-09-01T14:56:27.684Z,97451.59
2022-09-01T15:01:34.546Z,97462.66
2022-09-01T15:06:37.737Z,97443.94
2022-09-01T15:11:44.221Z,97441.97
2022-09-01T15:16:48.446Z,97430.91
2022-09-01T15:21:52.601Z,97430.72
2022-09-01T15:26:55.994Z,97494.41
2022-09-01T15:31:58.690Z,97404.78
2022-09-01T15:37:01.343Z,97433.38
2022-09-01T15:42:04.399Z,97456.44
2022-09-01T15:47:07.151Z,97470.03
2022-09-01T15:52:09.789Z,97461.66
2022-09-01T15:57:12.908Z,97455.09
2022-09-01T16:02:18.533Z,97438.97
2022-09-01T16:07:21.381Z,97438.06
2022-09-01T16:12:27.444Z,97439.66
2022-09-01T16:17:42.259Z,97450.09
2022-09-01T16:23:22.059Z,97489.50
2022-09-01T16:28:32.066Z,97501.09
2022-09-01T16:39:01.270Z,97496.09
2022-09-01T16:44:19.237Z,97491.09
2022-09-01T16:49:35.627Z,97495.63
2022-09-01T16:55:19.380Z,97454.03
2022-09-01T17:00:28.075Z,97441.34
2022-09-01T17:05:31.919Z,97513.00
2022-09-01T17:10:47.177Z,97441.09
2022-09-01T17:15:58.650Z,97490.41
2022-09-01T17:21:19.746Z,97509.03
2022-09-01T17:26:26.502Z,97490.41
2022-09-01T17:31:51.773Z,97499.00
2022-09-01T17:37:16.682Z,97494.81
2022-09-01T17:42:37.494Z,97504.66
2022-09-01T17:48:04.021Z,97504.53
2022-09-01T17:53:22.819Z,97526.22
2022-09-01T17:58:47.116Z,97523.59
2022-09-01T18:04:36.694Z,97534.47
2022-09-01T18:09:53.392Z,97515.59
2022-09-01T18:15:09.987Z,97513.59
2022-09-01T18:20:18.493Z,97544.44
2022-09-01T18:25:27.146Z,97546.19
2022-09-01T18:30:52.900Z,97551.22
2022-09-01T18:36:20.661Z,97576.47
2022-09-01T18:41:56.682Z,97568.72
2022-09-01T18:47:11.238Z,97570.31
2022-09-01T18:52:20.322Z,97605.94
2022-09-01T18:57:33.226Z,97557.78
2022-09-01T19:03:06.083Z,97519.47
2022-09-01T19:08:39.534Z,97532.31
2022-09-01T19:13:58.830Z,97521.81
2022-09-01T19:19:33.777Z,97572.06
2022-09-01T19:24:39.506Z,97598.38
2022-09-01T19:29:46.402Z,97611.13
2022-09-01T19:34:54.839Z,97615.72
2022-09-01T19:39:58.604Z,97572.19
2022-09-01T19:45:13.140Z,97612.19
2022-09-01T19:50:32.310Z,97607.06
2022-09-01T19:55:55.809Z,97602.75
2022-09-01T20:01:03.396Z,97604.72
2022-09-01T20:06:13.109Z,97604.28
2022-09-01T20:11:41.812Z,97602.78
2022-09-01T20:16:52.083Z,97503.00
2022-09-01T20:22:00.438Z,97608.69
2022-09-01T20:27:26.412Z,97611.00
2022-09-01T20:32:44.366Z,97578.44
2022-09-01T20:38:42.201Z,97539.47
2022-09-01T20:43:50.213Z,97592.81
2022-09-01T20:48:54.723Z,97597.47
2022-09-01T20:54:22.922Z,97618.34
2022-09-01T20:59:39.212Z,97622.25
2022-09-01T21:04:51.789Z,97555.25
2022-09-01T21:10:04.080Z,97559.38
2022-09-01T21:15:29.913Z,97617.13
2022-09-01T21:20:45.815Z,97639.00
2022-09-01T21:25:50.665Z,97576.44
2022-09-01T21:30:56.195Z,97625.41
2022-09-01T21:36:00.952Z,97592.81
2022-09-01T21:41:10.830Z,97612.56
2022-09-01T21:46:17.301Z,97570.34
2022-09-01T21:51:21.062Z,97618.72
2022-09-01T21:56:25.547Z,97599.28
2022-09-01T22:01:32.171Z,97593.31
2022-09-01T22:06:35.898Z,97572.91
2022-09-01T22:11:41.884Z,97604.44
2022-09-01T22:16:46.743Z,97593.94
2022-09-01T22:21:51.226Z,97606.75
2022-09-01T22:26:55.052Z,97589.16
2022-09-01T22:31:58.797Z,97544.00
2022-09-01T22:37:02.553Z,97592.59
2022-09-01T22:42:06.600Z,97550.34
2022-09-01T22:47:10.778Z,97602.09
2022-09-01T22:52:14.390Z,97583.41
2022-09-01T22:57:18.292Z,97612.09
2022-09-01T23:02:22.552Z,97405.63
2022-09-01T23:07:26.306Z,97589.63
2022-09-01T23:12:30.025Z,97587.34
2022-09-01T23:17:35.066Z,97578.88
2022-09-01T23:22:44.293Z,97586.88
2022-09-01T23:27:47.951Z,97587.69
2022-09-01T23:32:51.781Z,97579.16
2022-09-01T23:37:55.964Z,97578.41
2022-09-01T23:42:59.769Z,97563.16
2022-09-01T23:48:03.639Z,97558.75
2022-09-01T23:53:07.537Z,97444.47
2022-09-01T23:58:11.747Z,97545.72
